Time;durP1;ratioP1;P1;durP2;ratioP2;P2;SDS_P1;SDS_P2;PMS_P1;PMS_P2;Temp;Humidity;BMP_temperature;BMP_pressure;BME280_temperature;BME280_humidity;BME280_pressure;Samples;Min_cycle;Max_cycle;Signal;HPM_P1;HPM_P2
2024/02/02 00:01:39;;;;;;;;;;;;;;;3.19;100.00;97999.41;5105969;28;19935;-73
2024/02/02 00:04:05;;;;;;;;;;;;;;;3.22;100.00;98006.94;5124010;28;19938;-72
2024/02/02 00:06:31;;;;;;;;;;;;;;;3.23;100.00;98005.97;5124721;28;20038;-72
2024/02/02 00:08:57;;;;;;;;;;;;;;;3.24;100.00;98005.03;5123957;28;19953;-81
2024/02/02 00:11:23;;;;;;;;;;;;;;;3.24;100.00;98010.22;5105818;28;19930;-69
2024/02/02 00:13:48;;;;;;;;;;;;;;;3.24;100.00;98011.03;5106401;28;19940;-69
2024/02/02 00:16:14;;;;;;;;;;;;;;;3.23;100.00;98000.78;5123894;28;19956;-70
2024/02/02 00:18:40;;;;;;;;;;;;;;;3.23;100.00;98005.97;5106313;28;19962;-69
2024/02/02 00:21:06;;;;;;;;;;;;;;;3.25;100.00;98006.66;5123840;28;19939;-69
2024/02/02 00:23:32;;;;;;;;;;;;;;;3.25;100.00;98009.25;5106036;28;19969;-69
2024/02/02 00:25:58;;;;;;;;;;;;;;;3.25;100.00;98007.50;5123714;28;19955;-70
2024/02/02 00:28:24;;;;;;;;;;;;;;;3.26;100.00;98003.13;5124653;28;19934;-70
2024/02/02 00:30:50;;;;;;;;;;;;;;;3.26;100.00;97997.94;5125348;28;20270;-70
2024/02/02 00:33:16;;;;;;;;;;;;;;;3.25;100.00;98002.31;5127410;28;19939;-70
2024/02/02 00:35:42;;;;;;;;;;;;;;;3.27;100.00;98002.16;5127359;28;19942;-70
2024/02/02 00:38:08;;;;;;;;;;;;;;;3.28;100.00;98006.41;5127313;28;19937;-71
2024/02/02 00:40:33;;;;;;;;;;;;;;;3.29;100.00;98002.03;5127298;28;19941;-70
2024/02/02 00:43:00;;;;;;;;;;;;;;;3.31;100.00;97997.53;5127189;28;19934;-70
2024/02/02 00:45:25;;;;;;;;;;;;;;;3.31;100.00;97989.75;5127150;28;20104;-72
2024/02/02 00:47:51;;;;;;;;;;;;;;;3.31;100.00;97990.56;5127174;28;19997;-72
2024/02/02 00:50:17;;;;;;;;;;;;;;;3.32;100.00;97992.22;5127859;28;20010;-72
2024/02/02 00:52:43;;;;;;;;;;;;;;;3.32;100.00;97988.78;5091816;28;19970;-72
2024/02/02 00:55:09;;;;;;;;;;;;;;;3.32;100.00;97984.44;5126932;28;19947;-73
2024/02/02 00:57:35;;;;;;;;;;;;;;;3.31;100.00;97981.97;5126938;28;19977;-72
2024/02/02 01:00:01;;;;;;;;;;;;;;;3.31;100.00;97984.56;5127203;28;19941;-73
2024/02/02 01:02:27;;;;;;;;;;;;;;;3.33;100.00;97985.25;5109395;28;19959;-72
2024/02/02 01:04:53;;;;;;;;;;;;;;;3.32;100.00;97988.78;5127090;28;20116;-83
2024/02/02 01:07:18;;;;;;;;;;;;;;;3.33;100.00;97988.66;5126684;28;19991;-73
2024/02/02 01:09:44;;;;;;;;;;;;;;;3.35;100.00;97984.16;5126676;28;19951;-73
2024/02/02 01:12:10;;;;;;;;;;;;;;;3.35;100.00;97973.78;5092371;28;19976;-73
2024/02/02 01:14:40;;;;;;;;;;;;;;;3.36;100.00;97964.22;5126659;28;19984;-73
2024/02/02 01:17:06;;;;;;;;;;;;;;;3.37;100.00;97965.88;5108360;28;20159;-73
2024/02/02 01:19:33;;;;;;;;;;;;;;;3.38;100.00;97959.72;5109141;28;19934;-73
2024/02/02 01:21:59;;;;;;;;;;;;;;;3.38;100.00;97959.72;5108454;28;19935;-69
2024/02/02 01:24:25;;;;;;;;;;;;;;;3.38;100.00;97965.75;5127261;28;19969;-70
2024/02/02 01:26:51;;;;;;;;;;;;;;;3.37;100.00;97961.50;5126385;28;19941;-70
2024/02/02 01:29:16;;;;;;;;;;;;;;;3.35;100.00;97967.78;5126864;28;19941;-70
2024/02/02 01:31:42;;;;;;;;;;;;;;;3.34;100.00;97954.00;5126347;28;19983;-70
2024/02/02 01:34:08;;;;;;;;;;;;;;;3.33;100.00;97957.53;5107950;28;19950;-70
2024/02/02 01:36:36;;;;;;;;;;;;;;;3.34;100.00;97947.97;5126198;28;19934;-69
2024/02/02 01:39:04;;;;;;;;;;;;;;;3.34;100.00;97940.19;5126129;28;20019;-71
2024/02/02 01:41:30;;;;;;;;;;;;;;;3.32;100.00;97950.72;5125659;28;19959;-70
2024/02/02 01:43:55;;;;;;;;;;;;;;;3.30;100.00;97950.06;5126009;28;19943;-72
2024/02/02 01:46:22;;;;;;;;;;;;;;;3.29;100.00;97961.34;5108373;28;19952;-72
2024/02/02 01:48:48;;;;;;;;;;;;;;;3.30;100.00;97964.75;5125987;28;19931;-71
2024/02/02 01:51:14;;;;;;;;;;;;;;;3.25;100.00;97952.22;5125901;28;19941;-71
2024/02/02 01:53:40;;;;;;;;;;;;;;;3.24;100.00;97960.94;5125728;28;20038;-72
2024/02/02 01:56:06;;;;;;;;;;;;;;;3.20;100.00;97947.44;5125761;28;19941;-72
2024/02/02 01:58:32;;;;;;;;;;;;;;;3.20;100.00;97939.66;5125790;28;19950;-72
2024/02/02 02:00:58;;;;;;;;;;;;;;;3.18;100.00;97940.75;5108263;28;20014;-72
2024/02/02 02:03:24;;;;;;;;;;;;;;;3.15;100.00;97941.84;5125675;28;19935;-70
2024/02/02 02:05:50;;;;;;;;;;;;;;;3.15;100.00;97951.38;5125588;28;20154;-70
2024/02/02 02:08:16;;;;;;;;;;;;;;;3.14;100.00;97952.34;5126311;28;19954;-70
2024/02/02 02:10:43;;;;;;;;;;;;;;;3.15;100.00;97954.81;5125471;28;19939;-69
2024/02/02 02:13:09;;;;;;;;;;;;;;;3.16;100.00;97955.63;5125489;28;20221;-70
2024/02/02 02:15:35;;;;;;;;;;;;;;;3.16;100.00;97956.44;5125488;28;19957;-70
2024/02/02 02:18:01;;;;;;;;;;;;;;;3.16;100.00;97948.66;5125401;28;19976;-78
2024/02/02 02:20:27;;;;;;;;;;;;;;;3.15;100.00;97935.81;5066137;28;20141;-70
2024/02/02 02:22:53;;;;;;;;;;;;;;;3.13;100.00;97932.53;5083028;28;19937;-69
2024/02/02 02:25:19;;;;;;;;;;;;;;;3.11;100.00;97937.88;5082940;28;19942;-69
2024/02/02 02:27:45;;;;;;;;;;;;;;;3.10;100.00;97940.59;5082697;28;19951;-69
2024/02/02 02:30:11;;;;;;;;;;;;;;;3.09;100.00;97950.16;5082792;28;19942;-70
2024/02/02 02:32:37;;;;;;;;;;;;;;;3.08;100.00;97947.69;5082653;28;20014;-69
2024/02/02 02:35:03;;;;;;;;;;;;;;;3.05;100.00;97952.19;5082730;28;19930;-70
2024/02/02 02:37:30;;;;;;;;;;;;;;;3.04;100.00;97953.16;5082603;28;19962;-77
2024/02/02 02:39:56;;;;;;;;;;;;;;;3.02;100.00;97938.66;5081979;28;19939;-80
2024/02/02 02:42:22;;;;;;;;;;;;;;;3.01;100.00;97943.03;5082469;28;19943;-81
2024/02/02 02:44:47;;;;;;;;;;;;;;;3.00;100.00;97948.34;5082746;28;19930;-77
2024/02/02 02:47:14;;;;;;;;;;;;;;;3.00;100.00;97943.16;5082374;28;20070;-77
2024/02/02 02:49:39;;;;;;;;;;;;;;;3.00;100.00;97925.84;5083245;28;19942;-77
2024/02/02 02:52:05;;;;;;;;;;;;;;;3.02;100.00;97928.28;5114081;28;19932;-77
2024/02/02 02:54:32;;;;;;;;;;;;;;;3.02;100.00;97934.31;5106602;28;19935;-72
2024/02/02 02:56:58;;;;;;;;;;;;;;;3.04;100.00;97932.41;5124753;28;20140;-72
2024/02/02 02:59:24;;;;;;;;;;;;;;;3.03;100.00;97919.56;5124699;28;20132;-72
2024/02/02 03:01:50;;;;;;;;;;;;;;;3.00;100.00;97915.50;5106471;28;19971;-72
2024/02/02 03:04:16;;;;;;;;;;;;;;;2.97;100.00;97913.16;5107264;28;20203;-72
2024/02/02 03:06:42;;;;;;;;;;;;;;;2.98;100.00;97916.56;5124552;28;20249;-72
2024/02/02 03:09:08;;;;;;;;;;;;;;;3.00;100.00;97928.44;5124475;28;20293;-72
2024/02/02 03:11:37;;;;;;;;;;;;;;;3.01;100.00;97927.47;5106905;28;19932;-72
2024/02/02 03:14:03;;;;;;;;;;;;;;;3.03;100.00;97935.94;5125032;28;19937;-74
2024/02/02 03:16:29;;;;;;;;;;;;;;;3.06;100.00;97934.84;5125015;28;19933;-73
2024/02/02 03:18:54;;;;;;;;;;;;;;;3.08;100.00;97934.72;5125030;28;20097;-73
2024/02/02 03:21:20;;;;;;;;;;;;;;;3.09;100.00;97920.78;5106968;28;20213;-72
2024/02/02 03:23:46;;;;;;;;;;;;;;;3.11;100.00;97924.06;5124466;28;20215;-73
2024/02/02 03:26:12;;;;;;;;;;;;;;;3.14;100.00;97921.22;5124321;28;19956;-73
2024/02/02 03:28:38;;;;;;;;;;;;;;;3.14;100.00;97921.22;5106167;28;19943;-73
2024/02/02 03:31:04;;;;;;;;;;;;;;;3.14;100.00;97916.84;5124327;28;19933;-73
2024/02/02 03:33:30;;;;;;;;;;;;;;;3.14;100.00;97922.03;5090178;28;19946;-79
2024/02/02 03:35:55;;;;;;;;;;;;;;;3.16;100.00;97914.94;5124293;28;19936;-79
2024/02/02 03:38:21;;;;;;;;;;;;;;;3.16;100.00;97924.50;5106562;28;19934;-80
2024/02/02 03:40:47;;;;;;;;;;;;;;;3.17;100.00;97926.13;5106217;28;19935;-80
2024/02/02 03:43:14;;;;;;;;;;;;;;;3.18;100.00;97928.59;5124228;28;20013;-79
2024/02/02 03:45:39;;;;;;;;;;;;;;;3.19;100.00;97913.84;5106717;28;20147;-78
2024/02/02 03:48:05;;;;;;;;;;;;;;;3.20;100.00;97911.13;5124877;28;19950;-78
2024/02/02 03:50:31;;;;;;;;;;;;;;;3.21;100.00;97911.94;5124482;28;19938;-72
2024/02/02 03:53:00;;;;;;;;;;;;;;;3.21;100.00;97907.59;5124166;28;19963;-81
2024/02/02 03:55:26;;;;;;;;;;;;;;;3.21;100.00;97904.16;5124173;28;19946;-81
2024/02/02 03:57:52;;;;;;;;;;;;;;;3.21;100.00;97905.00;5089864;28;19948;-82
2024/02/02 04:00:18;;;;;;;;;;;;;;;3.21;100.00;97907.59;5124076;28;20169;-81
2024/02/02 04:02:45;;;;;;;;;;;;;;;3.21;100.00;97914.53;5124037;28;19998;-82
2024/02/02 04:05:11;;;;;;;;;;;;;;;3.21;100.00;97910.19;5126272;28;20124;-81
2024/02/02 04:07:37;;;;;;;;;;;;;;;3.20;100.00;97907.72;5110259;28;19956;-72
2024/02/02 04:10:04;;;;;;;;;;;;;;;3.21;100.00;97915.38;5127976;28;20238;-71
2024/02/02 04:12:29;;;;;;;;;;;;;;;3.21;100.00;97915.38;5127868;28;19955;-70
2024/02/02 04:14:56;;;;;;;;;;;;;;;3.23;100.00;97917.81;5109705;28;20207;-70
2024/02/02 04:17:21;;;;;;;;;;;;;;;3.24;100.00;97922.06;5127723;28;19933;-70
2024/02/02 04:19:47;;;;;;;;;;;;;;;3.24;100.00;97916.88;5128022;28;19933;-70
2024/02/02 04:22:16;;;;;;;;;;;;;;;3.26;100.00;97917.56;5127641;28;20058;-70
2024/02/02 04:24:45;;;;;;;;;;;;;;;3.27;100.00;97920.97;5127622;28;19936;-70
2024/02/02 04:27:11;;;;;;;;;;;;;;;3.28;100.00;97917.44;5127704;28;19958;-74
2024/02/02 04:29:37;;;;;;;;;;;;;;;3.31;100.00;97927.53;5127540;28;19936;-70
2024/02/02 04:32:03;;;;;;;;;;;;;;;3.31;100.00;97930.13;5127500;28;19980;-71
2024/02/02 04:34:29;;;;;;;;;;;;;;;3.32;100.00;97931.75;5127964;28;19939;-70
2024/02/02 04:36:55;;;;;;;;;;;;;;;3.34;100.00;97922.06;5127421;28;19950;-70
2024/02/02 04:39:21;;;;;;;;;;;;;;;3.35;100.00;97924.53;5109109;28;19979;-70
2024/02/02 04:41:47;;;;;;;;;;;;;;;3.37;100.00;97929.56;5127349;28;20280;-70
2024/02/02 04:44:12;;;;;;;;;;;;;;;3.37;100.00;97922.59;5109005;28;19985;-70
2024/02/02 04:46:38;;;;;;;;;;;;;;;3.38;100.00;97929.44;5127200;28;19991;-72
2024/02/02 04:49:04;;;;;;;;;;;;;;;3.39;100.00;97919.88;5092231;28;19934;-71
2024/02/02 04:51:30;;;;;;;;;;;;;;;3.40;100.00;97929.28;5127625;28;19939;-70
2024/02/02 04:53:56;;;;;;;;;;;;;;;3.41;100.00;97923.16;5091736;28;19987;-70
2024/02/02 04:56:22;;;;;;;;;;;;;;;3.42;100.00;97933.41;5126947;28;19981;-70
2024/02/02 04:58:51;;;;;;;;;;;;;;;3.42;100.00;97936.00;5126970;28;19930;-70
2024/02/02 05:01:20;;;;;;;;;;;;;;;3.42;100.00;97936.00;5109477;28;19937;-70
2024/02/02 05:03:46;;;;;;;;;;;;;;;3.43;100.00;97936.81;5092457;28;19944;-70
2024/02/02 05:06:16;;;;;;;;;;;;;;;3.43;100.00;97935.03;5109337;28;20013;-72
2024/02/02 05:08:43;;;;;;;;;;;;;;;3.44;100.00;97939.28;5126725;28;19952;-72
2024/02/02 05:11:08;;;;;;;;;;;;;;;3.45;100.00;97940.91;5126749;28;20255;-72
2024/02/02 05:13:34;;;;;;;;;;;;;;;3.47;100.00;97945.16;5126734;28;19939;-72
2024/02/02 05:16:00;;;;;;;;;;;;;;;3.47;100.00;97940.78;5125845;28;19935;-72
2024/02/02 05:18:26;;;;;;;;;;;;;;;3.49;100.00;97945.84;5127102;28;19943;-72
2024/02/02 05:20:52;;;;;;;;;;;;;;;3.49;100.00;97951.84;5126517;28;19934;-71
2024/02/02 05:23:18;;;;;;;;;;;;;;;3.50;100.00;97955.25;5127318;28;19959;-70
2024/02/02 05:25:44;;;;;;;;;;;;;;;3.53;100.00;97955.81;5108454;28;19929;-72
2024/02/02 05:28:09;;;;;;;;;;;;;;;3.55;100.00;97955.66;5126256;28;20205;-72
2024/02/02 05:30:37;;;;;;;;;;;;;;;3.57;100.00;97958.91;5126397;28;19934;-72
2024/02/02 05:33:03;;;;;;;;;;;;;;;3.58;100.00;97963.97;5108184;28;20133;-73
2024/02/02 05:35:29;;;;;;;;;;;;;;;3.58;100.00;97961.38;5126253;28;20120;-73
2024/02/02 05:37:55;;;;;;;;;;;;;;;3.59;100.00;97973.41;5127022;28;19936;-74
2024/02/02 05:40:21;;;;;;;;;;;;;;;3.60;100.00;97967.25;5126195;28;19972;-70
2024/02/02 05:42:46;;;;;;;;;;;;;;;3.63;100.00;97976.53;5126689;28;20205;-70
2024/02/02 05:45:13;;;;;;;;;;;;;;;3.64;100.00;97970.41;5126613;28;19986;-70
2024/02/02 05:47:38;;;;;;;;;;;;;;;3.68;100.00;97982.16;5126438;28;19955;-70
2024/02/02 05:50:04;;;;;;;;;;;;;;;3.68;100.00;97983.94;5126113;28;19929;-71
2024/02/02 05:52:30;;;;;;;;;;;;;;;3.69;100.00;98003.72;5125724;28;19968;-71
2024/02/02 05:54:56;;;;;;;;;;;;;;;3.70;100.00;98007.97;5107774;28;20288;-70
2024/02/02 05:57:22;;;;;;;;;;;;;;;3.71;100.00;98005.22;5125779;28;19998;-70
2024/02/02 05:59:49;;;;;;;;;;;;;;;3.73;100.00;98012.88;5126335;28;19944;-77
2024/02/02 06:02:15;;;;;;;;;;;;;;;3.73;100.00;98005.91;5125758;28;19930;-71
2024/02/02 06:04:41;;;;;;;;;;;;;;;3.75;100.00;97998.00;5125740;28;20013;-72
2024/02/02 06:07:06;;;;;;;;;;;;;;;3.77;100.00;97996.09;5125556;28;20015;-74
2024/02/02 06:09:32;;;;;;;;;;;;;;;3.77;100.00;97986.50;5126077;28;19949;-72
2024/02/02 06:11:58;;;;;;;;;;;;;;;3.80;100.00;97985.41;5091165;28;20105;-72
2024/02/02 06:14:25;;;;;;;;;;;;;;;3.77;100.00;97993.50;5125791;28;19934;-73
2024/02/02 06:16:51;;;;;;;;;;;;;;;3.77;100.00;97986.50;5125492;28;19933;-69
2024/02/02 06:19:17;;;;;;;;;;;;;;;3.75;100.00;97991.03;5107202;28;20114;-72
2024/02/02 06:21:43;;;;;;;;;;;;;;;3.74;100.00;97986.81;5125348;28;19961;-72
2024/02/02 06:24:08;;;;;;;;;;;;;;;3.76;100.00;97989.25;5125288;28;19950;-73
2024/02/02 06:26:36;;;;;;;;;;;;;;;3.77;100.00;97998.69;5107816;28;19943;-72
2024/02/02 06:29:03;;;;;;;;;;;;;;;3.77;100.00;97999.50;5125424;28;19936;-72
2024/02/02 06:31:29;;;;;;;;;;;;;;;3.76;100.00;97990.09;5125657;28;20114;-72
2024/02/02 06:33:54;;;;;;;;;;;;;;;3.74;100.00;97986.81;5107809;28;19931;-72
2024/02/02 06:36:24;;;;;;;;;;;;;;;3.76;100.00;97994.44;5125650;28;20216;-72
2024/02/02 06:38:50;;;;;;;;;;;;;;;3.73;100.00;97992.13;5125022;28;19942;-71
2024/02/02 06:41:16;;;;;;;;;;;;;;;3.73;100.00;97995.53;5106728;28;19940;-70
2024/02/02 06:43:42;;;;;;;;;;;;;;;3.77;100.00;97998.69;5107588;28;19942;-69
2024/02/02 06:46:09;;;;;;;;;;;;;;;3.80;100.00;98008.78;5124919;28;19985;-70
2024/02/02 06:48:35;;;;;;;;;;;;;;;3.82;100.00;98010.31;5124845;28;19950;-71
2024/02/02 06:51:01;;;;;;;;;;;;;;;3.85;100.00;98020.38;5124844;28;19955;-69
2024/02/02 06:53:30;;;;;;;;;;;;;;;3.88;100.00;98019.28;5124664;28;19961;-70
2024/02/02 06:55:56;;;;;;;;;;;;;;;3.88;100.00;98032.28;5106799;28;19946;-72
2024/02/02 06:58:37;;;;;;;;;;;;;;;3.86;100.00;98029.84;5125249;28;19940;-72
2024/02/02 07:01:05;;;;;;;;;;;;;;;3.90;100.00;98032.16;5123927;28;20272;-72
2024/02/02 07:03:31;;;;;;;;;;;;;;;3.93;100.00;98031.88;5124634;28;19937;-73
2024/02/02 07:05:57;;;;;;;;;;;;;;;3.96;100.00;98039.38;5124599;28;19936;-72
2024/02/02 07:08:23;;;;;;;;;;;;;;;3.97;100.00;98039.25;5124436;28;20004;-73
2024/02/02 07:10:59;;;;;;;;;;;;;;;3.98;100.00;98040.88;5125363;28;19934;-73
2024/02/02 07:13:25;;;;;;;;;;;;;;;4.00;100.00;98041.56;5125378;28;19935;-69
2024/02/02 07:15:51;;;;;;;;;;;;;;;4.00;100.00;98038.97;5124530;28;19929;-70
2024/02/02 07:18:35;;;;;;;;;;;;;;;4.01;100.00;98040.63;5125023;28;20144;-69
2024/02/02 07:21:09;;;;;;;;;;;;;;;4.03;100.00;98033.53;5107098;28;20085;-70
2024/02/02 07:23:36;;;;;;;;;;;;;;;4.04;100.00;98027.34;5124424;28;19931;-70
2024/02/02 07:26:06;;;;;;;;;;;;;;;4.06;100.00;98024.63;5089327;28;20131;-69
2024/02/02 07:28:37;;;;;;;;;;;;;;;4.10;100.00;98032.97;5125390;28;19951;-70
2024/02/02 07:31:03;;;;;;;;;;;;;;;4.12;100.00;98031.06;5124366;28;19929;-69
2024/02/02 07:33:29;;;;;;;;;;;;;;;4.12;100.00;98046.63;5124839;28;19939;-69
2024/02/02 07:35:57;;;;;;;;;;;;;;;4.15;100.00;98049.75;5124293;28;19939;-70
2024/02/02 07:38:26;;;;;;;;;;;;;;;4.16;100.00;98045.38;5106182;28;19938;-69
2024/02/02 07:40:56;;;;;;;;;;;;;;;4.14;100.00;98047.31;5127818;28;20199;-69
2024/02/02 07:43:22;;;;;;;;;;;;;;;4.15;100.00;98048.94;5086456;28;20014;-69
2024/02/02 07:45:48;;;;;;;;;;;;;;;4.17;100.00;98037.47;5086161;28;19944;-70
2024/02/02 07:48:14;;;;;;;;;;;;;;;4.19;100.00;98030.34;5086555;28;20227;-70
2024/02/02 07:50:40;;;;;;;;;;;;;;;4.20;100.00;98016.44;5085896;28;19971;-71
2024/02/02 07:53:05;;;;;;;;;;;;;;;4.21;100.00;98017.25;5068884;28;19969;-71
2024/02/02 07:55:31;;;;;;;;;;;;;;;4.20;100.00;98018.19;5069808;28;19994;-71
2024/02/02 07:57:57;;;;;;;;;;;;;;;4.18;100.00;98017.50;5085722;28;19936;-71
2024/02/02 08:00:23;;;;;;;;;;;;;;;4.21;100.00;98035.41;5068886;28;19939;-71
2024/02/02 08:02:49;;;;;;;;;;;;;;;4.25;100.00;98021.19;5086378;28;19942;-71
2024/02/02 08:05:15;;;;;;;;;;;;;;;4.31;100.00;98020.66;5085562;28;20193;-71
2024/02/02 08:07:41;;;;;;;;;;;;;;;4.38;100.00;98024.31;5085919;28;19952;-73
2024/02/02 08:10:07;;;;;;;;;;;;;;;4.45;100.00;98008.97;5085682;28;19940;-73
2024/02/02 08:12:33;;;;;;;;;;;;;;;4.46;100.00;98008.84;5085433;28;19944;-73
2024/02/02 08:14:59;;;;;;;;;;;;;;;4.46;100.00;98019.25;5116836;28;19994;-74
2024/02/02 08:17:25;;;;;;;;;;;;;;;4.71;100.00;98029.19;5127822;28;19936;-75
2024/02/02 08:19:51;;;;;;;;;;;;;;;5.31;100.00;98026.97;5127773;28;19988;-73
2024/02/02 08:22:16;;;;;;;;;;;;;;;5.82;100.00;98019.56;5110150;28;20106;-73
2024/02/02 08:24:43;;;;;;;;;;;;;;;5.93;100.00;98027.13;5127604;28;19978;-73
2024/02/02 08:27:09;;;;;;;;;;;;;;;5.84;100.00;98028.84;5127331;28;19954;-72
2024/02/02 08:29:34;;;;;;;;;;;;;;;5.73;100.00;98025.63;5128236;28;19992;-73
2024/02/02 08:32:00;;;;;;;;;;;;;;;5.64;100.00;98019.53;5127456;28;20007;-73
2024/02/02 08:34:26;;;;;;;;;;;;;;;5.58;100.00;98007.91;5110033;28;20208;-72
2024/02/02 08:36:53;;;;;;;;;;;;;;;5.51;100.00;98016.47;5127419;28;20014;-73
2024/02/02 08:39:19;;;;;;;;;;;;;;;5.41;100.00;98024.34;5127358;28;20041;-73
2024/02/02 08:41:45;;;;;;;;;;;;;;;5.33;100.00;98011.22;5109075;28;19938;-73
2024/02/02 08:44:19;;;;;;;;;;;;;;;5.27;100.00;98007.41;5127229;28;20219;-69
2024/02/02 08:46:46;;;;;;;;;;;;;;;5.22;100.00;97997.47;5109775;28;19935;-69
2024/02/02 08:49:31;;;;;;;;;;;;;;;5.19;100.00;97997.75;5127576;28;19958;-70
2024/02/02 08:51:57;;;;;;;;;;;;;;;5.20;100.00;98003.78;5125884;28;19938;-70
2024/02/02 08:54:33;;;;;;;;;;;;;;;5.22;100.00;98007.88;5126919;28;20012;-70
2024/02/02 08:57:18;;;;;;;;;;;;;;;5.24;100.00;98008.53;5109518;28;19938;-70
2024/02/02 08:59:44;;;;;;;;;;;;;;;5.25;100.00;98004.19;5127484;28;20098;-69
2024/02/02 09:02:18;;;;;;;;;;;;;;;5.23;100.00;98008.72;5126913;28;19957;-69
2024/02/02 09:04:51;;;;;;;;;;;;;;;5.25;100.00;98009.38;5127719;28;20119;-72
2024/02/02 09:07:17;;;;;;;;;;;;;;;5.29;100.00;98008.94;5126720;28;20111;-72
2024/02/02 09:09:43;;;;;;;;;;;;;;;5.36;100.00;98010.97;5126805;28;20022;-72
2024/02/02 09:12:10;;;;;;;;;;;;;;;5.41;100.00;98008.72;5126693;28;19938;-72
2024/02/02 09:14:36;;;;;;;;;;;;;;;5.45;100.00;98002.25;5126697;28;19936;-72
2024/02/02 09:17:01;;;;;;;;;;;;;;;5.49;100.00;98004.41;5127076;28;19995;-71
2024/02/02 09:19:37;;;;;;;;;;;;;;;5.55;100.00;98010.81;5126567;28;20279;-71
2024/02/02 09:22:06;;;;;;;;;;;;;;;5.59;100.00;98009.56;5109372;28;20082;-75
2024/02/02 09:24:32;;;;;;;;;;;;;;;5.61;100.00;98012.84;5126472;28;19956;-70
2024/02/02 09:26:58;;;;;;;;;;;;;;;5.65;100.00;98013.38;5126395;28;20228;-71
2024/02/02 09:29:24;;;;;;;;;;;;;;;5.65;100.00;98019.41;5126355;28;20099;-71
2024/02/02 09:31:49;;;;;;;;;;;;;;;5.69;100.00;98017.28;5126875;28;19967;-71
2024/02/02 09:34:20;;;;;;;;;;;;;;;5.70;100.00;98013.75;5126575;28;19937;-71
2024/02/02 09:36:47;;;;;;;;;;;;;;;5.72;100.00;98030.03;5126280;28;19940;-71
2024/02/02 09:39:21;;;;;;;;;;;;;;;5.74;100.00;98033.31;5126219;28;20133;-72
2024/02/02 09:42:03;;;;;;;;;;;;;;;5.78;100.00;98037.25;5126167;28;19941;-72
2024/02/02 09:44:29;;;;;;;;;;;;;;;5.80;100.00;98032.72;5126551;28;19955;-72
2024/02/02 09:46:55;;;;;;;;;;;;;;;5.85;100.00;98032.25;5125395;28;19938;-73
2024/02/02 09:49:24;;;;;;;;;;;;;;;5.87;100.00;98028.53;5126460;28;20120;-72
2024/02/02 09:51:50;;;;;;;;;;;;;;;5.90;100.00;98019.63;5126770;28;19943;-72
2024/02/02 09:54:28;;;;;;;;;;;;;;;5.92;100.00;98028.09;5125758;28;19961;-72
2024/02/02 09:57:14;;;;;;;;;;;;;;;5.93;100.00;98028.94;5126167;28;19936;-74
2024/02/02 09:59:40;;;;;;;;;;;;;;;5.96;100.00;98036.47;5090758;28;20246;-75
2024/02/02 10:02:25;;;;;;;;;;;;;;;5.98;100.00;98027.53;5125691;28;19935;-72
2024/02/02 10:05:03;;;;;;;;;;;;;;;6.02;100.00;98034.06;5107578;28;20134;-72
2024/02/02 10:07:41;;;;;;;;;;;;;;;6.04;100.00;98031.31;5125556;28;19950;-72
2024/02/02 10:10:10;;;;;;;;;;;;;;;6.06;100.00;98039.81;5108309;28;19952;-72
2024/02/02 10:12:50;;;;;;;;;;;;;;;6.09;100.00;98036.91;5126299;28;19935;-73
2024/02/02 10:15:35;;;;;;;;;;;;;;;6.14;100.00;98039.88;5125737;28;19947;-72
2024/02/02 10:18:19;;;;;;;;;;;;;;;6.19;100.00;98042.84;5126009;28;19944;-72
2024/02/02 10:20:51;;;;;;;;;;;;;;;6.24;100.00;98039.81;5125381;28;19941;-75
2024/02/02 10:23:33;;;;;;;;;;;;;;;6.26;100.00;98046.50;5108002;28;19947;-75
2024/02/02 10:26:05;;;;;;;;;;;;;;;6.35;100.00;98054.38;5090987;28;19936;-77
2024/02/02 10:28:49;;;;;;;;;;;;;;;6.40;100.00;98031.28;5125080;28;20144;-76
2024/02/02 10:31:30;;;;;;;;;;;;;;;6.45;100.00;98021.22;5125166;28;19943;-76
2024/02/02 10:34:28;;;;;;;;;;;;;;;6.47;100.00;98009.66;5125705;28;19933;-72
2024/02/02 10:36:57;;;;;;;;;;;;;;;6.53;100.00;98010.03;5069455;28;19938;-73
2024/02/02 10:39:26;;;;;;;;;;;;;;;6.63;100.00;98023.78;5106817;28;19937;-72
2024/02/02 10:41:55;;;;;;;;;;;;;;;6.79;100.00;98039.50;5106853;28;20227;-72
2024/02/02 10:44:45;;;;;;;;;;;;;;;7.04;100.00;98022.19;5106770;28;19943;-72
2024/02/02 10:47:24;;;;;;;;;;;;;;;7.31;100.00;98021.16;5125512;28;19937;-73
2024/02/02 10:50:20;;;;;;;;;;;;;;;7.58;100.00;98008.84;5107606;28;20190;-71
2024/02/02 10:52:55;;;;;;;;;;;;;;;7.97;100.00;98007.41;5103474;28;19972;-74
2024/02/02 10:55:27;;;;;;;;;;;;;;;8.20;100.00;97976.22;5125617;28;19939;-72
2024/02/02 10:58:02;;;;;;;;;;;;;;;8.32;100.00;97985.38;5124757;28;19941;-73
2024/02/02 11:00:31;;;;;;;;;;;;;;;8.55;100.00;97964.59;5124713;28;19945;-72
2024/02/02 11:03:16;;;;;;;;;;;;;;;8.78;100.00;97950.78;5124705;28;19941;-74
2024/02/02 11:05:50;;;;;;;;;;;;;;;9.11;100.00;97947.06;5125384;28;19943;-72
2024/02/02 11:08:18;;;;;;;;;;;;;;;9.24;100.00;97909.03;5107110;28;19965;-72
2024/02/02 11:10:51;;;;;;;;;;;;;;;9.07;100.00;97906.53;5124577;28;20127;-70
2024/02/02 11:13:23;;;;;;;;;;;;;;;8.98;100.00;97932.88;5124403;28;19940;-73
2024/02/02 11:16:07;;;;;;;;;;;;;;;8.92;100.00;97937.00;5106691;28;19947;-73
2024/02/02 11:18:43;;;;;;;;;;;;;;;9.02;100.00;97928.94;5124500;28;19937;-73
2024/02/02 11:21:09;;;;;;;;;;;;;;;9.19;100.00;97882.56;5124792;28;20221;-73
2024/02/02 11:23:45;;;;;;;;;;;;;;;9.43;100.00;97900.72;5124414;28;20008;-74
2024/02/02 11:26:15;;;;;;;;;;;;;;;9.72;100.00;97902.66;5125154;28;19932;-74
2024/02/02 11:28:51;;;;;;;;;;;;;;;9.90;100.00;97886.59;5106213;28;20243;-73
2024/02/02 11:31:25;;;;;;;;;;;;;;;10.02;100.00;97879.13;5124351;28;20229;-72
2024/02/02 11:34:07;;;;;;;;;;;;;;;10.14;100.00;97837.53;5124334;28;19936;-75
2024/02/02 11:36:55;;;;;;;;;;;;;;;10.24;100.00;97832.03;5106883;28;19931;-75
2024/02/02 11:39:40;;;;;;;;;;;;;;;10.23;100.00;97802.38;5124768;28;19943;-76
2024/02/02 11:42:08;;;;;;;;;;;;;;;10.24;100.00;97817.09;5106050;28;19937;-75
2024/02/02 11:44:35;;;;;;;;;;;;;;;10.32;100.00;97843.25;5106094;28;19937;-75
2024/02/02 11:47:02;;;;;;;;;;;;;;;10.20;97.64;97789.63;5106081;28;19949;-75
2024/02/02 11:49:29;;;;;;;;;;;;;;;10.10;99.70;97800.41;5124072;28;19955;-75
2024/02/02 11:52:03;;;;;;;;;;;;;;;9.99;99.78;97810.50;5124135;28;19946;-74
2024/02/02 11:54:38;;;;;;;;;;;;;;;10.03;100.00;97838.78;5124133;28;20234;-72
2024/02/02 11:57:06;;;;;;;;;;;;;;;10.13;100.00;97828.06;5106321;28;19948;-73
2024/02/02 11:59:36;;;;;;;;;;;;;;;10.23;100.00;97830.41;5123622;28;19937;-72
2024/02/02 12:02:02;;;;;;;;;;;;;;;10.42;100.00;97839.56;5123999;28;19940;-72
2024/02/02 12:04:39;;;;;;;;;;;;;;;10.49;100.00;97833.38;5123961;28;19939;-72
2024/02/02 12:07:11;;;;;;;;;;;;;;;10.44;98.68;97790.38;5106535;28;20079;-70
2024/02/02 12:09:42;;;;;;;;;;;;;;;10.42;100.00;97801.03;5124547;28;20263;-73
2024/02/02 12:12:12;;;;;;;;;;;;;;;10.39;96.50;97775.16;5124744;28;19946;-73
2024/02/02 12:14:42;;;;;;;;;;;;;;;10.39;97.42;97798.75;5123990;28;19939;-73
2024/02/02 12:17:10;;;;;;;;;;;;;;;10.44;97.53;97787.75;5124431;28;20110;-73
2024/02/02 12:19:36;;;;;;;;;;;;;;;10.51;98.10;97791.25;5106623;28;20192;-73
2024/02/02 12:22:02;;;;;;;;;;;;;;;10.62;100.00;97793.38;5089623;28;19945;-73
2024/02/02 12:24:29;;;;;;;;;;;;;;;10.68;100.00;97795.28;5123857;28;19935;-69
2024/02/02 12:26:55;;;;;;;;;;;;;;;10.73;100.00;97799.97;5127133;28;19939;-73
2024/02/02 12:29:21;;;;;;;;;;;;;;;10.80;95.70;97750.19;5109231;28;19956;-70
2024/02/02 12:31:48;;;;;;;;;;;;;;;10.90;100.00;97787.44;5127561;28;19960;-70
2024/02/02 12:34:14;;;;;;;;;;;;;;;11.07;93.82;97722.38;5128270;28;19931;-71
2024/02/02 12:36:40;;;;;;;;;;;;;;;11.25;100.00;97775.22;5127498;28;19945;-70
2024/02/02 12:39:06;;;;;;;;;;;;;;;11.33;96.26;97729.63;5127472;28;20156;-70
2024/02/02 12:41:35;;;;;;;;;;;;;;;11.37;93.25;97692.28;5128138;28;19933;-70
2024/02/02 12:44:01;;;;;;;;;;;;;;;11.28;92.45;97693.44;5127933;28;19929;-72
2024/02/02 12:46:28;;;;;;;;;;;;;;;11.21;87.21;97676.00;5127292;28;19938;-69
2024/02/02 12:48:55;;;;;;;;;;;;;;;11.19;91.95;97699.81;5127715;28;19959;-70
2024/02/02 12:51:21;;;;;;;;;;;;;;;11.16;85.96;97656.38;5127127;28;20224;-69